Time,TemperatureF,DewpointF,PressureIn,WindDirection,WindDirectionDegrees,WindSpeedMPH,WindSpeedGustMPH,Humidity,HourlyPrecipIn,Conditions,Clouds,dailyrainin,SoftwareType,DateUTC
2013-01-10 00:00:00,29.7,25.2,30.41,SW,231,0.0,1.0,83,0.00,,,0.00,meteohub,2013-01-10 05:00:00,
2013-01-10 00:01:00,29.7,25.2,30.41,SW,231,0.0,1.0,83,0.00,,,0.00,meteohub,2013-01-10 05:01:00,
2013-01-10 00:02:00,29.3,24.8,30.41,SW,231,0.0,1.0,83,0.00,,,0.00,meteohub,2013-01-10 05:02:00,
2013-01-10 00:07:00,28.8,24.8,30.41,SW,231,0.0,1.0,85,0.00,,,0.00,meteohub,2013-01-10 05:07:00,
2013-01-10 00:12:00,28.6,24.6,30.41,SW,233,0.0,0.0,85,0.00,,,0.00,meteohub,2013-01-10 05:12:00,
2013-01-10 00:17:00,28.4,24.8,30.41,SW,233,0.0,1.0,86,0.00,,,0.00,meteohub,2013-01-10 05:17:00,
2013-01-10 00:22:00,28.2,24.6,30.41,SW,231,0.0,1.0,86,0.00,,,0.00,meteohub,2013-01-10 05:22:00,
2013-01-10 00:27:00,28.0,24.4,30.41,SW,231,0.0,0.0,86,0.00,,,0.00,meteohub,2013-01-10 05:27:00,
2013-01-10 00:32:00,28.0,24.6,30.41,SW,233,0.0,0.0,87,0.00,,,0.00,meteohub,2013-01-10 05:32:00,
2013-01-10 00:37:00,27.9,24.4,30.41,SW,231,0.0,0.0,87,0.00,,,0.00,meteohub,2013-01-10 05:37:00,
2013-01-10 00:42:00,27.9,25.0,30.40,SW,231,0.0,0.0,89,0.00,,,0.00,meteohub,2013-01-10 05:42:00,
2013-01-10 00:47:00,27.5,24.4,30.40,SW,231,0.0,0.0,88,0.00,,,0.00,meteohub,2013-01-10 05:47:00,
2013-01-10 00:52:00,27.1,24.1,30.41,SW,231,0.0,0.0,88,0.00,,,0.00,meteohub,2013-01-10 05:52:00,
2013-01-10 00:57:00,26.8,23.9,30.41,SW,233,0.0,0.0,89,0.00,,,0.00,meteohub,2013-01-10 05:57:00,
2013-01-10 01:02:00,26.8,24.3,30.41,SW,233,0.0,0.0,90,0.00,,,0.00,meteohub,2013-01-10 06:02:00,
2013-01-10 01:07:00,26.8,23.9,30.40,SW,233,0.0,0.0,89,0.00,,,0.00,meteohub,2013-01-10 06:07:00,
2013-01-10 01:12:00,26.6,23.7,30.41,SW,231,0.0,0.0,89,0.00,,,0.00,meteohub,2013-01-10 06:12:00,
2013-01-10 01:17:00,26.4,23.9,30.41,SW,231,0.0,0.0,90,0.00,,,0.00,meteohub,2013-01-10 06:17:00,
2013-01-10 01:22:00,26.6,24.3,30.41,South,171,0.0,1.0,91,0.00,,,0.00,meteohub,2013-01-10 06:22:00,
2013-01-10 01:27:00,27.0,24.6,30.41,South,171,0.0,1.0,91,0.00,,,0.00,meteohub,2013-01-10 06:27:00,
2013-01-10 01:32:00,26.8,24.3,30.41,South,171,0.0,2.0,90,0.00,,,0.00,meteohub,2013-01-10 06:32:00,
2013-01-10 01:37:00,26.4,23.9,30.42,SSE,151,0.0,2.0,90,0.00,,,0.00,meteohub,2013-01-10 06:37:00,
2013-01-10 01:43:00,26.1,23.5,30.43,SSE,151,0.0,2.0,90,0.00,,,0.00,meteohub,2013-01-10 06:43:00,
2013-01-10 01:48:00,25.9,23.4,30.42,SSE,151,0.0,1.0,90,0.00,,,0.00,meteohub,2013-01-10 06:48:00,
2013-01-10 01:50:00,26.1,23.7,30.43,SSE,151,0.0,1.0,91,0.00,,,0.00,meteohub,2013-01-10 06:50:00,
2013-01-10 01:57:00,26.2,23.9,30.42,SSE,151,0.0,1.0,91,0.00,,,0.00,meteohub,2013-01-10 06:57:00,
2013-01-10 02:02:00,26.2,23.7,30.41,SSE,160,0.0,2.0,90,0.00,,,0.00,meteohub,2013-01-10 07:02:00,
2013-01-10 02:07:00,25.9,23.4,30.42,SSE,159,0.0,2.0,90,0.00,,,0.00,meteohub,2013-01-10 07:07:00,
2013-01-10 02:12:00,25.3,22.8,30.41,SSE,160,0.0,2.0,90,0.00,,,0.00,meteohub,2013-01-10 07:12:00,
2013-01-10 02:17:00,25.3,23.0,30.41,SSE,159,0.0,1.0,91,0.00,,,0.00,meteohub,2013-01-10 07:17:00,
2013-01-10 02:22:00,25.3,23.0,30.42,SSE,160,0.0,0.0,91,0.00,,,0.00,meteohub,2013-01-10 07:22:00,
2013-01-10 02:27:00,25.5,23.5,30.41,SSE,159,0.0,1.0,92,0.00,,,0.00,meteohub,2013-01-10 07:27:00,
2013-01-10 02:32:00,25.3,23.0,30.42,SSE,155,0.0,1.0,91,0.00,,,0.00,meteohub,2013-01-10 07:32:00,
2013-01-10 02:37:00,25.0,22.6,30.43,SSE,155,0.0,1.0,91,0.00,,,0.00,meteohub,2013-01-10 07:37:00,
2013-01-10 02:42:00,24.6,22.5,30.43,SSE,155,0.0,1.0,91,0.00,,,0.00,meteohub,2013-01-10 07:42:00,
2013-01-10 02:47:00,24.6,22.6,30.43,SSE,155,0.0,1.0,92,0.00,,,0.00,meteohub,2013-01-10 07:47:00,
2013-01-10 02:52:00,24.8,22.8,30.43,SW,233,0.0,0.0,92,0.00,,,0.00,meteohub,2013-01-10 07:52:00,
2013-01-10 02:57:00,25.0,23.0,30.43,SW,233,0.0,1.0,92,0.00,,,0.00,meteohub,2013-01-10 07:57:00,
2013-01-10 03:02:00,25.0,23.0,30.44,SE,144,1.0,1.0,92,0.00,,,0.00,meteohub,2013-01-10 08:02:00,
2013-01-10 03:07:00,24.8,22.8,30.45,SW,216,0.0,2.0,92,0.00,,,0.00,meteohub,2013-01-10 08:07:00,
2013-01-10 03:12:00,24.8,22.8,30.44,SSE,154,0.0,3.0,92,0.00,,,0.00,meteohub,2013-01-10 08:12:00,
2013-01-10 03:17:00,24.6,22.6,30.44,SSE,155,1.0,3.0,92,0.00,,,0.00,meteohub,2013-01-10 08:17:00,
2013-01-10 03:22:00,24.4,22.5,30.44,SSE,162,0.0,3.0,92,0.00,,,0.00,meteohub,2013-01-10 08:22:00,
2013-01-10 03:27:00,24.3,22.3,30.44,SSE,162,0.0,2.0,92,0.00,,,0.00,meteohub,2013-01-10 08:27:00,
2013-01-10 03:32:00,24.3,22.3,30.45,SE,141,1.0,2.0,92,0.00,,,0.00,meteohub,2013-01-10 08:32:00,
2013-01-10 03:37:00,24.3,22.3,30.45,SSW,193,0.0,3.0,92,0.00,,,0.00,meteohub,2013-01-10 08:37:00,
2013-01-10 03:42:00,24.6,22.6,30.45,SSE,150,0.0,3.0,92,0.00,,,0.00,meteohub,2013-01-10 08:42:00,
2013-01-10 03:47:00,24.6,22.6,30.45,South,179,0.0,3.0,92,0.00,,,0.00,meteohub,2013-01-10 08:47:00,
2013-01-10 03:52:00,25.0,23.0,30.45,SE,129,1.0,3.0,92,0.00,,,0.00,meteohub,2013-01-10 08:52:00,
2013-01-10 03:57:00,25.0,23.0,30.45,ESE,107,0.0,2.0,92,0.00,,,0.00,meteohub,2013-01-10 08:57:00,
2013-01-10 04:02:00,25.0,23.0,30.45,ESE,122,0.0,2.0,92,0.00,,,0.00,meteohub,2013-01-10 09:02:00,
2013-01-10 04:07:00,25.3,23.4,30.46,SSE,154,0.0,2.0,92,0.00,,,0.00,meteohub,2013-01-10 09:07:00,
2013-01-10 04:12:00,25.5,23.5,30.47,SSE,160,0.0,2.0,92,0.00,,,0.00,meteohub,2013-01-10 09:12:00,
2013-01-10 04:17:00,25.7,23.4,30.47,East,89,2.0,3.0,91,0.00,,,0.00,meteohub,2013-01-10 09:17:00,
2013-01-10 04:22:00,25.7,23.2,30.47,ESE,105,0.0,3.0,90,0.00,,,0.00,meteohub,2013-01-10 09:22:00,
2013-01-10 04:27:00,25.5,23.0,30.47,ESE,117,1.0,3.0,90,0.00,,,0.00,meteohub,2013-01-10 09:27:00,
2013-01-10 04:32:00,25.3,22.8,30.48,South,190,1.0,3.0,90,0.00,,,0.00,meteohub,2013-01-10 09:32:00,
2013-01-10 04:37:00,25.7,23.4,30.48,ESE,122,1.0,3.0,91,0.00,,,0.00,meteohub,2013-01-10 09:37:00,
2013-01-10 04:42:00,26.8,24.4,30.50,East,100,1.0,3.0,91,0.00,,,0.00,meteohub,2013-01-10 09:42:00,
2013-01-10 04:47:00,27.9,25.0,30.51,WSW,251,1.0,3.0,89,0.00,,,0.00,meteohub,2013-01-10 09:47:00,
2013-01-10 04:52:00,28.8,25.3,30.51,WSW,241,1.0,4.0,87,0.00,,,0.00,meteohub,2013-01-10 09:52:00,
2013-01-10 04:57:00,29.1,25.2,30.51,SSW,210,0.0,4.0,85,0.00,,,0.00,meteohub,2013-01-10 09:57:00,
2013-01-10 05:02:00,29.1,25.0,30.51,SSW,196,1.0,4.0,84,0.00,,,0.00,meteohub,2013-01-10 10:02:00,
2013-01-10 05:07:00,28.2,24.1,30.50,SSW,194,0.0,4.0,84,0.00,,,0.00,meteohub,2013-01-10 10:07:00,
2013-01-10 05:12:00,27.7,24.1,30.51,SSW,203,0.0,3.0,86,0.00,,,0.00,meteohub,2013-01-10 10:12:00,
2013-01-10 05:17:00,27.3,23.9,30.51,SSW,203,0.0,3.0,87,0.00,,,0.00,meteohub,2013-01-10 10:17:00,
2013-01-10 05:22:00,27.1,23.7,30.51,South,179,0.0,3.0,87,0.00,,,0.00,meteohub,2013-01-10 10:22:00,
2013-01-10 05:27:00,27.0,23.9,30.51,South,179,0.0,2.0,88,0.00,,,0.00,meteohub,2013-01-10 10:27:00,
2013-01-10 05:32:00,27.0,23.9,30.51,SSE,164,0.0,2.0,88,0.00,,,0.00,meteohub,2013-01-10 10:32:00,
2013-01-10 05:37:00,27.0,23.9,30.51,ENE,58,0.0,1.0,88,0.00,,,0.00,meteohub,2013-01-10 10:37:00,
2013-01-10 05:42:00,27.0,23.9,30.51,East,92,0.0,1.0,88,0.00,,,0.00,meteohub,2013-01-10 10:42:00,
2013-01-10 05:47:00,27.1,24.3,30.51,SE,144,0.0,1.0,89,0.00,,,0.00,meteohub,2013-01-10 10:47:00,
2013-01-10 05:52:00,27.1,24.1,30.51,SSW,203,0.0,1.0,88,0.00,,,0.00,meteohub,2013-01-10 10:52:00,
2013-01-10 05:57:00,27.0,23.9,30.51,SSE,150,0.0,1.0,88,0.00,,,0.00,meteohub,2013-01-10 10:57:00,
2013-01-10 06:02:00,27.0,23.9,30.51,South,181,0.0,1.0,88,0.00,,,0.00,meteohub,2013-01-10 11:02:00,
2013-01-10 06:07:00,27.0,23.9,30.51,SE,145,0.0,1.0,88,0.00,,,0.00,meteohub,2013-01-10 11:07:00,
2013-01-10 06:12:00,27.0,23.9,30.51,South,171,0.0,1.0,88,0.00,,,0.00,meteohub,2013-01-10 11:12:00,
2013-01-10 06:17:00,26.8,23.7,30.51,SSE,164,0.0,1.0,88,0.00,,,0.00,meteohub,2013-01-10 11:17:00,
2013-01-10 06:22:00,26.6,23.5,30.51,SSE,150,0.0,1.0,88,0.00,,,0.00,meteohub,2013-01-10 11:22:00,
2013-01-10 06:27:00,26.4,23.4,30.51,SSE,157,0.0,1.0,88,0.00,,,0.00,meteohub,2013-01-10 11:27:00,
2013-01-10 06:32:00,26.2,23.4,30.51,South,169,0.0,1.0,89,0.00,,,0.00,meteohub,2013-01-10 11:32:00,
2013-01-10 06:37:00,26.4,23.9,30.51,NE,44,0.0,1.0,90,0.00,,,0.00,meteohub,2013-01-10 11:37:00,
2013-01-10 06:42:00,27.1,24.6,30.51,WNW,283,0.0,2.0,90,0.00,,,0.00,meteohub,2013-01-10 11:42:00,
2013-01-10 06:47:00,27.7,24.6,30.51,NE,48,0.0,2.0,88,0.00,,,0.00,meteohub,2013-01-10 11:47:00,
2013-01-10 06:52:00,27.7,24.6,30.51,SSE,162,0.0,3.0,88,0.00,,,0.00,meteohub,2013-01-10 11:52:00,
2013-01-10 06:57:00,27.1,23.7,30.51,SSW,193,1.0,3.0,87,0.00,,,0.00,meteohub,2013-01-10 11:57:00,
2013-01-10 07:02:00,26.6,23.2,30.51,South,182,0.0,3.0,87,0.00,,,0.00,meteohub,2013-01-10 12:02:00,
2013-01-10 07:07:00,25.9,22.8,30.52,North,9,0.0,2.0,88,0.00,,,0.00,meteohub,2013-01-10 12:07:00,
2013-01-10 07:12:00,25.5,22.8,30.52,SW,214,0.0,2.0,89,0.00,,,0.00,meteohub,2013-01-10 12:12:00,
2013-01-10 07:17:00,25.2,22.5,30.52,ESE,119,0.0,2.0,89,0.00,,,0.00,meteohub,2013-01-10 12:17:00,
2013-01-10 07:22:00,25.0,22.5,30.53,SSE,152,0.0,2.0,90,0.00,,,0.00,meteohub,2013-01-10 12:22:00,
2013-01-10 07:27:00,24.8,22.3,30.53,South,189,1.0,2.0,90,0.00,,,0.00,meteohub,2013-01-10 12:27:00,
2013-01-10 07:32:00,24.6,22.5,30.53,SSE,152,0.0,1.0,91,0.00,,,0.00,meteohub,2013-01-10 12:32:00,
2013-01-10 07:37:00,24.4,22.3,30.53,SSE,152,0.0,1.0,91,0.00,,,0.00,meteohub,2013-01-10 12:37:00,
2013-01-10 07:42:00,24.4,22.3,30.53,South,190,0.0,1.0,91,0.00,,,0.00,meteohub,2013-01-10 12:42:00,
2013-01-10 07:47:00,24.3,21.7,30.53,South,190,0.0,1.0,90,0.00,,,0.00,meteohub,2013-01-10 12:47:00,
2013-01-10 07:52:00,24.3,22.1,30.53,South,190,0.0,1.0,91,0.00,,,0.00,meteohub,2013-01-10 12:52:00,
2013-01-10 07:57:00,24.4,22.3,30.53,South,190,0.0,1.0,91,0.00,,,0.00,meteohub,2013-01-10 12:57:00,
2013-01-10 08:02:00,24.3,21.7,30.53,South,189,0.0,1.0,90,0.00,,,0.00,meteohub,2013-01-10 13:02:00,
2013-01-10 08:07:00,23.9,21.4,30.53,South,189,0.0,1.0,90,0.00,,,0.00,meteohub,2013-01-10 13:07:00,
2013-01-10 08:12:00,23.7,21.6,30.53,SSW,204,0.0,1.0,91,0.00,,,0.00,meteohub,2013-01-10 13:12:00,
2013-01-10 08:17:00,23.7,21.6,30.54,SSW,203,0.0,1.0,91,0.00,,,0.00,meteohub,2013-01-10 13:17:00,
2013-01-10 08:22:00,23.5,21.4,30.55,SSW,203,0.0,1.0,91,0.00,,,0.00,meteohub,2013-01-10 13:22:00,
2013-01-10 08:27:00,23.5,21.6,30.55,SSW,202,0.0,1.0,92,0.00,,,0.00,meteohub,2013-01-10 13:27:00,
2013-01-10 08:32:00,23.4,21.2,30.55,ESE,120,0.0,0.0,91,0.00,,,0.00,meteohub,2013-01-10 13:32:00,
2013-01-10 08:37:00,23.0,20.8,30.54,SSE,157,1.0,1.0,91,0.00,,,0.00,meteohub,2013-01-10 13:37:00,
2013-01-10 08:42:00,22.8,20.8,30.54,SE,143,0.0,1.0,92,0.00,,,0.00,meteohub,2013-01-10 13:42:00,
2013-01-10 08:48:00,23.2,21.4,30.54,SE,144,0.0,1.0,93,0.00,,,0.00,meteohub,2013-01-10 13:48:00,
2013-01-10 08:53:00,23.7,21.9,30.53,SE,141,0.0,1.0,93,0.00,,,0.00,meteohub,2013-01-10 13:53:00,
2013-01-10 08:58:00,24.3,22.5,30.53,South,170,0.0,1.0,93,0.00,,,0.00,meteohub,2013-01-10 13:58:00,
2013-01-10 09:03:00,25.0,23.2,30.53,ESE,112,1.0,2.0,93,0.00,,,0.00,meteohub,2013-01-10 14:03:00,
2013-01-10 09:08:00,25.9,23.9,30.53,SSE,149,2.0,2.0,92,0.00,,,0.00,meteohub,2013-01-10 14:08:00,
2013-01-10 09:13:00,26.8,24.4,30.53,ESE,122,0.0,3.0,91,0.00,,,0.00,meteohub,2013-01-10 14:13:00,
2013-01-10 09:18:00,27.5,25.0,30.53,South,176,1.0,3.0,90,0.00,,,0.00,meteohub,2013-01-10 14:18:00,
2013-01-10 09:23:00,28.0,25.0,30.52,SSE,167,0.0,3.0,88,0.00,,,0.00,meteohub,2013-01-10 14:23:00,
2013-01-10 09:28:00,28.4,25.3,30.52,SSE,150,2.0,2.0,88,0.00,,,0.00,meteohub,2013-01-10 14:28:00,
2013-01-10 09:33:00,28.8,25.3,30.52,SE,130,0.0,3.0,87,0.00,,,0.00,meteohub,2013-01-10 14:33:00,
2013-01-10 09:38:00,28.9,25.5,30.51,SSE,151,0.0,3.0,87,0.00,,,0.00,meteohub,2013-01-10 14:38:00,
2013-01-10 09:43:00,29.1,25.7,30.51,South,171,2.0,3.0,87,0.00,,,0.00,meteohub,2013-01-10 14:43:00,
2013-01-10 09:48:00,29.3,25.7,30.51,SSW,207,0.0,3.0,86,0.00,,,0.00,meteohub,2013-01-10 14:48:00,
2013-01-10 09:53:00,29.8,26.4,30.51,SSE,168,1.0,2.0,87,0.00,,,0.00,meteohub,2013-01-10 14:53:00,
2013-01-10 09:58:00,30.4,26.8,30.52,West,272,0.0,2.0,86,0.00,,,0.00,meteohub,2013-01-10 14:58:00,
2013-01-10 10:03:00,30.7,27.1,30.52,SE,144,2.0,2.0,86,0.00,,,0.00,meteohub,2013-01-10 15:03:00,
2013-01-10 10:08:00,31.3,27.3,30.51,South,175,0.0,3.0,85,0.00,,,0.00,meteohub,2013-01-10 15:08:00,
2013-01-10 10:13:00,31.6,27.7,30.51,SSE,158,1.0,3.0,85,0.00,,,0.00,meteohub,2013-01-10 15:13:00,
2013-01-10 10:18:00,31.8,27.5,30.51,SE,131,0.0,3.0,84,0.00,,,0.00,meteohub,2013-01-10 15:18:00,
2013-01-10 10:23:00,32.4,28.0,30.51,SE,143,0.0,3.0,84,0.00,,,0.00,meteohub,2013-01-10 15:23:00,
2013-01-10 10:28:00,32.7,28.2,30.51,South,184,0.0,3.0,83,0.00,,,0.00,meteohub,2013-01-10 15:28:00,
2013-01-10 10:33:00,33.3,28.6,30.51,ESE,103,0.0,3.0,83,0.00,,,0.00,meteohub,2013-01-10 15:33:00,
2013-01-10 10:38:00,33.6,28.8,30.51,SSW,196,0.0,3.0,82,0.00,,,0.00,meteohub,2013-01-10 15:38:00,
2013-01-10 10:43:00,34.2,28.9,30.50,ESE,110,1.0,2.0,81,0.00,,,0.00,meteohub,2013-01-10 15:43:00,
2013-01-10 10:48:00,34.5,28.8,30.50,SSE,157,1.0,4.0,79,0.00,,,0.00,meteohub,2013-01-10 15:48:00,
2013-01-10 10:53:00,34.9,29.1,30.50,SSE,151,1.0,4.0,79,0.00,,,0.00,meteohub,2013-01-10 15:53:00,
2013-01-10 10:58:00,35.2,29.1,30.50,South,183,1.0,4.0,78,0.00,,,0.00,meteohub,2013-01-10 15:58:00,
2013-01-10 11:03:00,35.4,29.3,30.49,East,100,1.0,4.0,78,0.00,,,0.00,meteohub,2013-01-10 16:03:00,
2013-01-10 11:08:00,35.8,29.3,30.50,SSW,193,0.0,4.0,77,0.00,,,0.00,meteohub,2013-01-10 16:08:00,
2013-01-10 11:13:00,36.1,29.3,30.50,SE,145,2.0,4.0,76,0.00,,,0.00,meteohub,2013-01-10 16:13:00,
2013-01-10 11:18:00,36.5,28.8,30.50,South,175,0.0,4.0,73,0.00,,,0.00,meteohub,2013-01-10 16:18:00,
2013-01-10 11:23:00,36.9,28.8,30.50,SSE,152,1.0,5.0,72,0.00,,,0.00,meteohub,2013-01-10 16:23:00,
2013-01-10 11:28:00,37.0,28.6,30.50,South,179,0.0,5.0,71,0.00,,,0.00,meteohub,2013-01-10 16:28:00,
2013-01-10 11:33:00,37.4,28.6,30.49,ENE,70,2.0,5.0,70,0.00,,,0.00,meteohub,2013-01-10 16:33:00,
2013-01-10 11:38:00,37.8,28.6,30.49,SE,145,2.0,5.0,69,0.00,,,0.00,meteohub,2013-01-10 16:38:00,
2013-01-10 11:43:00,37.9,28.4,30.48,South,176,1.0,5.0,68,0.00,,,0.00,meteohub,2013-01-10 16:43:00,
2013-01-10 11:48:00,38.1,28.2,30.48,South,171,2.0,5.0,67,0.00,,,0.00,meteohub,2013-01-10 16:48:00,
2013-01-10 11:53:00,38.5,28.4,30.48,ESE,113,1.0,4.0,67,0.00,,,0.00,meteohub,2013-01-10 16:53:00,
2013-01-10 11:58:00,38.8,28.0,30.48,WNW,293,2.0,4.0,65,0.00,,,0.00,meteohub,2013-01-10 16:58:00,
2013-01-10 12:03:00,38.8,27.7,30.48,ENE,77,1.0,6.0,64,0.00,,,0.00,meteohub,2013-01-10 17:03:00,
2013-01-10 12:08:00,39.0,27.5,30.47,SE,131,1.0,9.0,63,0.00,,,0.00,meteohub,2013-01-10 17:08:00,
2013-01-10 12:13:00,39.2,28.0,30.47,NW,304,1.0,9.0,64,0.00,,,0.00,meteohub,2013-01-10 17:13:00,
2013-01-10 12:18:00,39.4,28.2,30.47,ESE,105,3.0,9.0,64,0.00,,,0.00,meteohub,2013-01-10 17:18:00,
2013-01-10 12:23:00,39.6,28.0,30.47,ENE,78,1.0,6.0,63,0.00,,,0.00,meteohub,2013-01-10 17:23:00,
2013-01-10 12:28:00,39.7,27.9,30.47,SE,126,2.0,6.0,62,0.00,,,0.00,meteohub,2013-01-10 17:28:00,
2013-01-10 12:33:00,39.7,28.2,30.46,ESE,120,2.0,6.0,63,0.00,,,0.00,meteohub,2013-01-10 17:33:00,
2013-01-10 12:38:00,39.9,28.0,30.46,West,279,1.0,6.0,62,0.00,,,0.00,meteohub,2013-01-10 17:38:00,
2013-01-10 12:43:00,40.1,28.0,30.46,South,181,2.0,6.0,62,0.00,,,0.00,meteohub,2013-01-10 17:43:00,
2013-01-10 12:48:00,40.1,28.0,30.45,SSW,199,2.0,6.0,62,0.00,,,0.00,meteohub,2013-01-10 17:48:00,
2013-01-10 12:53:00,40.1,28.0,30.46,ESE,122,1.0,6.0,62,0.00,,,0.00,meteohub,2013-01-10 17:53:00,
2013-01-10 12:58:00,40.1,28.0,30.45,South,185,2.0,6.0,62,0.00,,,0.00,meteohub,2013-01-10 17:58:00,
2013-01-10 13:03:00,40.3,28.2,30.45,SSW,207,0.0,6.0,62,0.00,,,0.00,meteohub,2013-01-10 18:03:00,
2013-01-10 13:08:00,40.5,28.0,30.45,SE,125,1.0,6.0,61,0.00,,,0.00,meteohub,2013-01-10 18:08:00,
2013-01-10 13:14:00,40.6,28.2,30.45,SE,133,2.0,6.0,61,0.00,,,0.00,meteohub,2013-01-10 18:14:00,
2013-01-10 13:19:00,40.8,28.0,30.44,South,190,1.0,4.0,60,0.00,,,0.00,meteohub,2013-01-10 18:19:00,
2013-01-10 13:24:00,41.2,28.8,30.44,South,179,1.0,4.0,61,0.00,,,0.00,meteohub,2013-01-10 18:24:00,
2013-01-10 13:29:00,41.4,28.0,30.43,SSW,209,3.0,4.0,59,0.00,,,0.00,meteohub,2013-01-10 18:29:00,
2013-01-10 13:34:00,41.5,28.2,30.44,SE,133,2.0,5.0,59,0.00,,,0.00,meteohub,2013-01-10 18:34:00,
2013-01-10 13:39:00,41.7,28.4,30.43,ENE,67,2.0,5.0,59,0.00,,,0.00,meteohub,2013-01-10 18:39:00,
2013-01-10 13:44:00,41.7,27.7,30.43,SW,224,2.0,6.0,57,0.00,,,0.00,meteohub,2013-01-10 18:44:00,
2013-01-10 13:49:00,41.7,27.7,30.43,SE,138,2.0,6.0,57,0.00,,,0.00,meteohub,2013-01-10 18:49:00,
2013-01-10 13:54:00,42.3,27.7,30.42,SSE,154,2.0,6.0,56,0.00,,,0.00,meteohub,2013-01-10 18:54:00,
2013-01-10 13:59:00,42.4,27.5,30.42,East,91,1.0,5.0,55,0.00,,,0.00,meteohub,2013-01-10 18:59:00,
2013-01-10 14:04:00,42.4,27.5,30.41,SSE,164,1.0,5.0,55,0.00,,,0.00,meteohub,2013-01-10 19:04:00,
2013-01-10 14:09:00,43.0,27.9,30.41,SSE,164,3.0,4.0,55,0.00,,,0.00,meteohub,2013-01-10 19:09:00,
2013-01-10 14:14:00,43.2,27.7,30.41,East,92,2.0,4.0,54,0.00,,,0.00,meteohub,2013-01-10 19:14:00,
2013-01-10 14:19:00,43.2,27.7,30.41,SE,124,1.0,4.0,54,0.00,,,0.00,meteohub,2013-01-10 19:19:00,
2013-01-10 14:24:00,43.2,27.7,30.40,SSE,152,5.0,5.0,54,0.00,,,0.00,meteohub,2013-01-10 19:24:00,
2013-01-10 14:29:00,43.2,27.7,30.40,SE,141,3.0,6.0,54,0.00,,,0.00,meteohub,2013-01-10 19:29:00,
2013-01-10 14:34:00,43.2,28.6,30.40,South,185,1.0,6.0,56,0.00,,,0.00,meteohub,2013-01-10 19:34:00,
2013-01-10 14:39:00,43.3,28.2,30.40,SE,124,1.0,8.0,55,0.00,,,0.00,meteohub,2013-01-10 19:39:00,
2013-01-10 14:44:00,43.2,27.1,30.40,SE,138,4.0,8.0,53,0.00,,,0.00,meteohub,2013-01-10 19:44:00,
2013-01-10 14:49:00,43.0,27.5,30.39,SW,220,1.0,8.0,54,0.00,,,0.00,meteohub,2013-01-10 19:49:00,
2013-01-10 14:54:00,43.0,27.5,30.39,SSE,150,2.0,7.0,54,0.00,,,0.00,meteohub,2013-01-10 19:54:00,
2013-01-10 14:59:00,43.3,28.2,30.39,SE,138,2.0,7.0,55,0.00,,,0.00,meteohub,2013-01-10 19:59:00,
2013-01-10 15:04:00,43.5,27.5,30.39,ENE,64,2.0,6.0,53,0.00,,,0.00,meteohub,2013-01-10 20:04:00,
2013-01-10 15:09:00,43.5,27.5,30.39,SW,234,1.0,5.0,53,0.00,,,0.00,meteohub,2013-01-10 20:09:00,
2013-01-10 15:14:00,43.3,27.9,30.38,ESE,109,1.0,4.0,54,0.00,,,0.00,meteohub,2013-01-10 20:14:00,
2013-01-10 15:19:00,43.5,28.0,30.38,South,177,1.0,4.0,54,0.00,,,0.00,meteohub,2013-01-10 20:19:00,
2013-01-10 15:24:00,43.7,27.7,30.38,South,171,1.0,3.0,53,0.00,,,0.00,meteohub,2013-01-10 20:24:00,
2013-01-10 15:29:00,44.1,27.1,30.38,ESE,112,1.0,3.0,51,0.00,,,0.00,meteohub,2013-01-10 20:29:00,
2013-01-10 15:34:00,43.7,27.1,30.38,South,179,3.0,3.0,52,0.00,,,0.00,meteohub,2013-01-10 20:34:00,
2013-01-10 15:40:00,43.3,26.4,30.38,NE,37,1.0,4.0,51,0.00,,,0.00,meteohub,2013-01-10 20:40:00,
2013-01-10 15:45:00,43.2,26.2,30.38,SW,233,1.0,4.0,51,0.00,,,0.00,meteohub,2013-01-10 20:45:00,
2013-01-10 15:50:00,42.8,26.8,30.37,SSW,192,0.0,4.0,53,0.00,,,0.00,meteohub,2013-01-10 20:50:00,
2013-01-10 15:55:00,42.4,27.0,30.36,SE,137,1.0,4.0,54,0.00,,,0.00,meteohub,2013-01-10 20:55:00,
2013-01-10 16:00:00,42.3,27.7,30.36,SE,129,0.0,4.0,56,0.00,,,0.00,meteohub,2013-01-10 21:00:00,
2013-01-10 16:05:00,41.7,27.1,30.36,ESE,119,1.0,4.0,56,0.00,,,0.00,meteohub,2013-01-10 21:05:00,
2013-01-10 16:10:00,41.7,27.7,30.36,SSE,164,0.0,3.0,57,0.00,,,0.00,meteohub,2013-01-10 21:10:00,
2013-01-10 16:15:00,41.4,27.7,30.36,SSE,150,0.0,3.0,58,0.00,,,0.00,meteohub,2013-01-10 21:15:00,
2013-01-10 16:20:00,41.2,27.1,30.36,SSW,195,0.0,3.0,57,0.00,,,0.00,meteohub,2013-01-10 21:20:00,
2013-01-10 16:25:00,41.0,27.0,30.36,East,96,3.0,5.0,57,0.00,,,0.00,meteohub,2013-01-10 21:25:00,
2013-01-10 16:30:00,41.0,27.0,30.36,SSE,160,1.0,5.0,57,0.00,,,0.00,meteohub,2013-01-10 21:30:00,
2013-01-10 16:35:00,40.6,27.5,30.35,East,95,1.0,6.0,59,0.00,,,0.00,meteohub,2013-01-10 21:35:00,
2013-01-10 16:40:00,40.5,27.3,30.35,ENE,74,1.0,6.0,59,0.00,,,0.00,meteohub,2013-01-10 21:40:00,
2013-01-10 16:45:00,40.1,27.3,30.35,ENE,68,1.0,3.0,60,0.00,,,0.00,meteohub,2013-01-10 21:45:00,
2013-01-10 16:50:00,39.9,27.1,30.35,ESE,117,0.0,3.0,60,0.00,,,0.00,meteohub,2013-01-10 21:50:00,
2013-01-10 16:55:00,39.7,27.3,30.35,South,176,0.0,2.0,61,0.00,,,0.00,meteohub,2013-01-10 21:55:00,
2013-01-10 17:00:00,39.4,27.1,30.35,SSE,151,1.0,4.0,61,0.00,,,0.00,meteohub,2013-01-10 22:00:00,
2013-01-10 17:05:00,39.0,27.1,30.35,SSE,150,0.0,4.0,62,0.00,,,0.00,meteohub,2013-01-10 22:05:00,
2013-01-10 17:10:00,38.7,27.5,30.35,SSE,151,0.0,1.0,64,0.00,,,0.00,meteohub,2013-01-10 22:10:00,
2013-01-10 17:15:00,38.3,27.5,30.35,ESE,106,1.0,2.0,65,0.00,,,0.00,meteohub,2013-01-10 22:15:00,
2013-01-10 17:20:00,38.1,27.0,30.35,East,86,0.0,2.0,64,0.00,,,0.00,meteohub,2013-01-10 22:20:00,
2013-01-10 17:25:00,37.8,26.6,30.34,SE,131,0.0,2.0,64,0.00,,,0.00,meteohub,2013-01-10 22:25:00,
2013-01-10 17:30:00,37.6,27.3,30.34,SE,131,0.0,2.0,66,0.00,,,0.00,meteohub,2013-01-10 22:30:00,
2013-01-10 17:35:00,37.2,27.3,30.34,SE,131,0.0,1.0,67,0.00,,,0.00,meteohub,2013-01-10 22:35:00,
2013-01-10 17:40:00,37.0,26.8,30.34,ESE,109,0.0,1.0,66,0.00,,,0.00,meteohub,2013-01-10 22:40:00,
2013-01-10 17:45:00,37.0,26.4,30.34,East,92,0.0,1.0,65,0.00,,,0.00,meteohub,2013-01-10 22:45:00,
2013-01-10 17:50:00,37.2,26.6,30.34,SE,127,0.0,1.0,65,0.00,,,0.00,meteohub,2013-01-10 22:50:00,
2013-01-10 17:55:00,37.6,26.6,30.33,SE,129,0.0,2.0,64,0.00,,,0.00,meteohub,2013-01-10 22:55:00,
2013-01-10 18:00:00,37.6,27.0,30.33,SE,138,0.0,2.0,65,0.00,,,0.00,meteohub,2013-01-10 23:00:00,
2013-01-10 18:05:00,37.2,27.3,30.33,SE,134,0.0,2.0,67,0.00,,,0.00,meteohub,2013-01-10 23:05:00,
2013-01-10 18:11:00,36.9,26.6,30.33,SE,134,0.0,1.0,66,0.00,,,0.00,meteohub,2013-01-10 23:11:00,
2013-01-10 18:16:00,36.9,27.0,30.33,ENE,75,1.0,1.0,67,0.00,,,0.00,meteohub,2013-01-10 23:16:00,
2013-01-10 18:21:00,37.0,26.8,30.32,NE,56,1.0,3.0,66,0.00,,,0.00,meteohub,2013-01-10 23:21:00,
2013-01-10 18:26:00,37.0,26.8,30.33,ESE,117,2.0,3.0,66,0.00,,,0.00,meteohub,2013-01-10 23:26:00,
2013-01-10 18:31:00,37.2,27.3,30.32,WSW,241,1.0,3.0,67,0.00,,,0.00,meteohub,2013-01-10 23:31:00,
2013-01-10 18:36:00,37.4,27.5,30.32,SSE,154,3.0,3.0,67,0.00,,,0.00,meteohub,2013-01-10 23:36:00,
2013-01-10 18:41:00,37.6,27.7,30.32,SSW,202,1.0,3.0,67,0.00,,,0.00,meteohub,2013-01-10 23:41:00,
2013-01-10 18:46:00,37.6,27.7,30.32,SSE,160,4.0,4.0,67,0.00,,,0.00,meteohub,2013-01-10 23:46:00,
2013-01-10 18:51:00,37.8,27.9,30.32,South,171,0.0,5.0,67,0.00,,,0.00,meteohub,2013-01-10 23:51:00,
2013-01-10 18:56:00,37.6,28.0,30.31,SE,127,2.0,5.0,68,0.00,,,0.00,meteohub,2013-01-10 23:56:00,
2013-01-10 19:01:00,37.6,28.0,30.31,South,171,1.0,5.0,68,0.00,,,0.00,meteohub,2013-01-11 00:01:00,
2013-01-10 19:06:00,37.6,28.0,30.31,SSE,159,2.0,5.0,68,0.00,,,0.00,meteohub,2013-01-11 00:06:00,
2013-01-10 19:11:00,37.4,27.5,30.30,SW,214,0.0,5.0,67,0.00,,,0.00,meteohub,2013-01-11 00:11:00,
2013-01-10 19:16:00,37.2,27.7,30.30,ESE,110,0.0,5.0,68,0.00,,,0.00,meteohub,2013-01-11 00:16:00,
2013-01-10 19:21:00,37.2,27.7,30.30,WSW,251,1.0,5.0,68,0.00,,,0.00,meteohub,2013-01-11 00:21:00,
2013-01-10 19:26:00,37.2,27.3,30.30,SE,134,3.0,4.0,67,0.00,,,0.00,meteohub,2013-01-11 00:26:00,
2013-01-10 19:31:00,37.2,27.3,30.29,East,80,1.0,5.0,67,0.00,,,0.00,meteohub,2013-01-11 00:31:00,
2013-01-10 19:36:00,37.2,27.3,30.29,ESE,113,1.0,5.0,67,0.00,,,0.00,meteohub,2013-01-11 00:36:00,
2013-01-10 19:41:00,37.2,27.3,30.29,SE,142,2.0,5.0,67,0.00,,,0.00,meteohub,2013-01-11 00:41:00,
2013-01-10 19:46:00,37.2,27.3,30.29,SSE,161,3.0,5.0,67,0.00,,,0.00,meteohub,2013-01-11 00:46:00,
2013-01-10 19:51:00,37.2,27.3,30.28,SE,136,2.0,4.0,67,0.00,,,0.00,meteohub,2013-01-11 00:51:00,
2013-01-10 19:56:00,37.2,27.0,30.29,SSE,157,2.0,6.0,66,0.00,,,0.00,meteohub,2013-01-11 00:56:00,
2013-01-10 20:02:00,37.2,27.3,30.28,South,181,2.0,6.0,67,0.00,,,0.00,meteohub,2013-01-11 01:02:00,
2013-01-10 20:07:00,37.4,27.5,30.28,SSW,197,1.0,8.0,67,0.00,,,0.00,meteohub,2013-01-11 01:07:00,
2013-01-10 20:12:00,37.2,27.3,30.27,SSW,196,2.0,8.0,67,0.00,,,0.00,meteohub,2013-01-11 01:12:00,
2013-01-10 20:17:00,37.2,27.3,30.27,ESE,110,1.0,8.0,67,0.00,,,0.00,meteohub,2013-01-11 01:17:00,
2013-01-10 20:22:00,37.2,27.7,30.27,SSE,155,2.0,6.0,68,0.00,,,0.00,meteohub,2013-01-11 01:22:00,
2013-01-10 20:27:00,37.2,27.3,30.27,SE,131,1.0,5.0,67,0.00,,,0.00,meteohub,2013-01-11 01:27:00,
2013-01-10 20:32:00,37.2,27.3,30.26,ESE,109,1.0,7.0,67,0.00,,,0.00,meteohub,2013-01-11 01:32:00,
2013-01-10 20:37:00,37.2,27.7,30.26,NNW,333,1.0,7.0,68,0.00,,,0.00,meteohub,2013-01-11 01:37:00,
2013-01-10 20:42:00,37.0,27.5,30.26,SSE,162,2.0,7.0,68,0.00,,,0.00,meteohub,2013-01-11 01:42:00,
2013-01-10 20:47:00,37.0,27.9,30.25,SSW,195,2.0,6.0,69,0.00,,,0.00,meteohub,2013-01-11 01:47:00,
2013-01-10 20:52:00,37.0,27.9,30.25,SSE,155,2.0,8.0,69,0.00,,,0.00,meteohub,2013-01-11 01:52:00,
2013-01-10 20:57:00,37.0,28.2,30.25,SE,130,3.0,8.0,70,0.00,,,0.00,meteohub,2013-01-11 01:57:00,
2013-01-10 21:02:00,37.0,28.6,30.24,SSE,150,1.0,8.0,71,0.00,,,0.00,meteohub,2013-01-11 02:02:00,
2013-01-10 21:07:00,37.0,28.2,30.24,ESE,117,4.0,9.0,70,0.00,,,0.00,meteohub,2013-01-11 02:07:00,
2013-01-10 21:12:00,37.0,28.6,30.23,East,86,6.0,11.0,71,0.00,,,0.00,meteohub,2013-01-11 02:12:00,
2013-01-10 21:17:00,37.0,28.6,30.23,East,100,2.0,11.0,71,0.00,,,0.00,meteohub,2013-01-11 02:17:00,
2013-01-10 21:22:00,37.0,28.6,30.23,WSW,240,1.0,11.0,71,0.00,,,0.00,meteohub,2013-01-11 02:22:00,
2013-01-10 21:27:00,37.0,28.6,30.22,SSE,152,3.0,8.0,71,0.00,,,0.00,meteohub,2013-01-11 02:27:00,
2013-01-10 21:32:00,37.0,28.9,30.22,WSW,239,2.0,8.0,72,0.00,,,0.00,meteohub,2013-01-11 02:32:00,
2013-01-10 21:37:00,36.9,28.8,30.21,WSW,253,4.0,8.0,72,0.00,,,0.00,meteohub,2013-01-11 02:37:00,
2013-01-10 21:42:00,37.0,28.6,30.20,WSW,237,2.0,9.0,71,0.00,,,0.00,meteohub,2013-01-11 02:42:00,
2013-01-10 21:47:00,37.0,28.9,30.20,SE,145,3.0,13.0,72,0.00,,,0.00,meteohub,2013-01-11 02:47:00,
2013-01-10 21:52:00,36.9,28.8,30.20,SE,126,1.0,13.0,72,0.00,,,0.00,meteohub,2013-01-11 02:52:00,
2013-01-10 21:57:00,37.0,28.6,30.20,SSW,208,5.0,9.0,71,0.00,,,0.00,meteohub,2013-01-11 02:57:00,
2013-01-10 22:02:00,37.0,28.6,30.20,WSW,238,1.0,10.0,71,0.00,,,0.00,meteohub,2013-01-11 03:02:00,
2013-01-10 22:07:00,37.2,28.8,30.20,East,82,1.0,10.0,71,0.00,,,0.00,meteohub,2013-01-11 03:07:00,
2013-01-10 22:12:00,37.2,28.8,30.19,SSW,206,3.0,10.0,71,0.00,,,0.00,meteohub,2013-01-11 03:12:00,
2013-01-10 22:17:00,37.2,28.8,30.19,WSW,247,3.0,10.0,71,0.00,,,0.00,meteohub,2013-01-11 03:17:00,
2013-01-10 22:22:00,37.2,28.4,30.19,WSW,253,1.0,10.0,70,0.00,,,0.00,meteohub,2013-01-11 03:22:00,
2013-01-10 22:27:00,37.2,28.4,30.18,SSE,161,5.0,10.0,70,0.00,,,0.00,meteohub,2013-01-11 03:27:00,
2013-01-10 22:32:00,37.2,28.4,30.19,East,100,2.0,9.0,70,0.00,,,0.00,meteohub,2013-01-11 03:32:00,
2013-01-10 22:37:00,37.2,28.4,30.18,ESE,115,2.0,9.0,70,0.00,,,0.00,meteohub,2013-01-11 03:37:00,
2013-01-10 22:42:00,37.6,28.8,30.18,SSE,147,5.0,9.0,70,0.00,,,0.00,meteohub,2013-01-11 03:42:00,
2013-01-10 22:47:00,37.6,28.4,30.18,WSW,240,2.0,8.0,69,0.00,,,0.00,meteohub,2013-01-11 03:47:00,
2013-01-10 22:52:00,37.6,28.0,30.17,SSW,209,1.0,8.0,68,0.00,,,0.00,meteohub,2013-01-11 03:52:00,
2013-01-10 22:58:00,37.8,27.9,30.17,SSW,196,4.0,7.0,67,0.00,,,0.00,meteohub,2013-01-11 03:58:00,
2013-01-10 23:03:00,37.6,27.7,30.16,SW,218,3.0,7.0,67,0.00,,,0.00,meteohub,2013-01-11 04:03:00,
2013-01-10 23:08:00,37.8,27.5,30.16,NNE,19,5.0,9.0,66,0.00,,,0.00,meteohub,2013-01-11 04:08:00,
2013-01-10 23:13:00,37.8,27.9,30.15,East,86,3.0,11.0,67,0.00,,,0.00,meteohub,2013-01-11 04:13:00,
2013-01-10 23:18:00,37.8,27.5,30.15,SE,145,2.0,11.0,66,0.00,,,0.00,meteohub,2013-01-11 04:18:00,
2013-01-10 23:23:00,37.9,27.7,30.14,South,182,2.0,11.0,66,0.00,,,0.00,meteohub,2013-01-11 04:23:00,
2013-01-10 23:28:00,37.8,27.9,30.14,South,184,4.0,11.0,67,0.00,,,0.00,meteohub,2013-01-11 04:28:00,
2013-01-10 23:33:00,37.8,27.9,30.13,SSW,193,4.0,11.0,67,0.00,,,0.00,meteohub,2013-01-11 04:33:00,
2013-01-10 23:38:00,37.8,27.5,30.13,South,185,2.0,9.0,66,0.00,,,0.00,meteohub,2013-01-11 04:38:00,
2013-01-10 23:43:00,37.8,27.5,30.12,SSE,151,2.0,9.0,66,0.00,,,0.00,meteohub,2013-01-11 04:43:00,
2013-01-10 23:48:00,37.6,27.7,30.12,South,184,1.0,9.0,67,0.00,,,0.00,meteohub,2013-01-11 04:48:00,
2013-01-10 23:53:00,37.6,27.7,30.12,SW,233,1.0,8.0,67,0.00,,,0.00,meteohub,2013-01-11 04:53:00,
2013-01-10 23:58:00,37.6,27.7,30.12,NE,51,2.0,8.0,67,0.00,,,0.00,meteohub,2013-01-11 04:58:00,